sensor_id;sensor_type;location;lat;lon;timestamp;P1;durP1;ratioP1;P2;durP2;ratioP2
8562;SDS011;16392;52.508;13.468;2023-02-23T00:00:14;360.60;;;69.80;;
8562;SDS011;16392;52.508;13.468;2023-02-23T00:02:45;365.60;;;67.37;;
8562;SDS011;16392;52.508;13.468;2023-02-23T00:05:15;359.50;;;66.77;;
8562;SDS011;16392;52.508;13.468;2023-02-23T00:07:42;361.30;;;65.17;;
8562;SDS011;16392;52.508;13.468;2023-02-23T00:10:10;378.53;;;68.03;;
8562;SDS011;16392;52.508;13.468;2023-02-23T00:12:37;363.43;;;66.80;;
8562;SDS011;16392;52.508;13.468;2023-02-23T00:15:05;359.20;;;66.83;;
8562;SDS011;16392;52.508;13.468;2023-02-23T00:17:32;365.07;;;66.13;;
8562;SDS011;16392;52.508;13.468;2023-02-23T00:20:02;359.87;;;67.23;;
8562;SDS011;16392;52.508;13.468;2023-02-23T00:22:34;359.77;;;65.37;;
8562;SDS011;16392;52.508;13.468;2023-02-23T00:25:00;370.97;;;63.60;;
8562;SDS011;16392;52.508;13.468;2023-02-23T00:27:33;359.47;;;67.10;;
8562;SDS011;16392;52.508;13.468;2023-02-23T00:30:00;360.07;;;66.20;;
8562;SDS011;16392;52.508;13.468;2023-02-23T00:32:27;362.47;;;65.30;;
8562;SDS011;16392;52.508;13.468;2023-02-23T00:34:54;363.97;;;70.20;;
8562;SDS011;16392;52.508;13.468;2023-02-23T00:37:23;366.13;;;67.20;;
8562;SDS011;16392;52.508;13.468;2023-02-23T00:39:53;390.90;;;69.80;;
8562;SDS011;16392;52.508;13.468;2023-02-23T00:42:20;366.93;;;68.40;;
8562;SDS011;16392;52.508;13.468;2023-02-23T00:44:47;359.23;;;68.60;;
8562;SDS011;16392;52.508;13.468;2023-02-23T00:47:14;358.13;;;65.83;;
8562;SDS011;16392;52.508;13.468;2023-02-23T00:49:41;361.30;;;66.73;;
8562;SDS011;16392;52.508;13.468;2023-02-23T00:52:09;360.47;;;67.83;;
8562;SDS011;16392;52.508;13.468;2023-02-23T00:54:40;357.37;;;68.97;;
8562;SDS011;16392;52.508;13.468;2023-02-23T00:57:07;358.67;;;64.40;;
8562;SDS011;16392;52.508;13.468;2023-02-23T00:59:34;357.47;;;63.53;;
8562;SDS011;16392;52.508;13.468;2023-02-23T01:02:01;360.13;;;71.03;;
8562;SDS011;16392;52.508;13.468;2023-02-23T01:04:27;363.73;;;66.50;;
8562;SDS011;16392;52.508;13.468;2023-02-23T01:06:54;360.10;;;66.40;;
8562;SDS011;16392;52.508;13.468;2023-02-23T01:09:20;358.10;;;67.07;;
8562;SDS011;16392;52.508;13.468;2023-02-23T01:11:53;356.47;;;66.03;;
8562;SDS011;16392;52.508;13.468;2023-02-23T01:14:21;356.10;;;64.87;;
8562;SDS011;16392;52.508;13.468;2023-02-23T01:16:49;360.23;;;67.93;;
8562;SDS011;16392;52.508;13.468;2023-02-23T01:19:15;359.73;;;67.77;;
8562;SDS011;16392;52.508;13.468;2023-02-23T01:21:42;356.23;;;64.27;;
8562;SDS011;16392;52.508;13.468;2023-02-23T01:24:09;370.33;;;88.97;;
8562;SDS011;16392;52.508;13.468;2023-02-23T01:26:37;357.97;;;66.50;;
8562;SDS011;16392;52.508;13.468;2023-02-23T01:29:07;362.80;;;71.30;;
8562;SDS011;16392;52.508;13.468;2023-02-23T01:31:35;358.83;;;70.33;;
8562;SDS011;16392;52.508;13.468;2023-02-23T01:34:04;361.13;;;72.60;;
8562;SDS011;16392;52.508;13.468;2023-02-23T01:36:32;363.07;;;66.13;;
8562;SDS011;16392;52.508;13.468;2023-02-23T01:39:01;363.30;;;75.57;;
8562;SDS011;16392;52.508;13.468;2023-02-23T01:41:32;356.63;;;64.70;;
8562;SDS011;16392;52.508;13.468;2023-02-23T01:44:01;358.23;;;65.70;;
8562;SDS011;16392;52.508;13.468;2023-02-23T01:46:31;361.03;;;70.93;;
8562;SDS011;16392;52.508;13.468;2023-02-23T01:48:59;358.07;;;66.93;;
8562;SDS011;16392;52.508;13.468;2023-02-23T01:51:29;359.30;;;68.30;;
8562;SDS011;16392;52.508;13.468;2023-02-23T01:53:59;355.63;;;65.53;;
8562;SDS011;16392;52.508;13.468;2023-02-23T01:56:30;360.33;;;69.10;;
8562;SDS011;16392;52.508;13.468;2023-02-23T01:59:02;354.47;;;64.73;;
8562;SDS011;16392;52.508;13.468;2023-02-23T02:01:33;355.80;;;65.53;;
8562;SDS011;16392;52.508;13.468;2023-02-23T02:04:00;365.90;;;70.57;;
8562;SDS011;16392;52.508;13.468;2023-02-23T02:06:30;359.67;;;64.47;;
8562;SDS011;16392;52.508;13.468;2023-02-23T02:08:58;359.20;;;74.87;;
8562;SDS011;16392;52.508;13.468;2023-02-23T02:11:32;360.47;;;66.77;;
8562;SDS011;16392;52.508;13.468;2023-02-23T02:14:01;363.40;;;73.70;;
8562;SDS011;16392;52.508;13.468;2023-02-23T02:19:47;355.67;;;67.27;;
8562;SDS011;16392;52.508;13.468;2023-02-23T02:25:48;356.53;;;67.23;;
8562;SDS011;16392;52.508;13.468;2023-02-23T02:28:36;355.33;;;65.30;;
8562;SDS011;16392;52.508;13.468;2023-02-23T02:31:42;358.17;;;66.87;;
8562;SDS011;16392;52.508;13.468;2023-02-23T02:34:37;354.00;;;64.67;;
8562;SDS011;16392;52.508;13.468;2023-02-23T02:37:39;358.80;;;67.60;;
8562;SDS011;16392;52.508;13.468;2023-02-23T02:40:14;356.03;;;64.73;;
8562;SDS011;16392;52.508;13.468;2023-02-23T02:42:53;356.67;;;66.03;;
8562;SDS011;16392;52.508;13.468;2023-02-23T02:45:26;355.27;;;65.43;;
8562;SDS011;16392;52.508;13.468;2023-02-23T02:47:57;357.50;;;64.57;;
8562;SDS011;16392;52.508;13.468;2023-02-23T02:50:32;357.70;;;67.47;;
8562;SDS011;16392;52.508;13.468;2023-02-23T02:53:07;355.63;;;64.90;;
8562;SDS011;16392;52.508;13.468;2023-02-23T02:55:35;359.50;;;66.40;;
8562;SDS011;16392;52.508;13.468;2023-02-23T02:58:07;355.20;;;64.20;;
8562;SDS011;16392;52.508;13.468;2023-02-23T03:00:37;368.10;;;88.50;;
8562;SDS011;16392;52.508;13.468;2023-02-23T03:03:27;352.70;;;64.17;;
8562;SDS011;16392;52.508;13.468;2023-02-23T03:06:12;353.43;;;64.07;;
8562;SDS011;16392;52.508;13.468;2023-02-23T03:09:00;373.57;;;66.17;;
8562;SDS011;16392;52.508;13.468;2023-02-23T03:11:52;357.03;;;71.23;;
8562;SDS011;16392;52.508;13.468;2023-02-23T03:14:47;352.90;;;64.60;;
8562;SDS011;16392;52.508;13.468;2023-02-23T03:17:43;353.60;;;64.30;;
8562;SDS011;16392;52.508;13.468;2023-02-23T03:20:35;354.00;;;66.03;;
8562;SDS011;16392;52.508;13.468;2023-02-23T03:23:26;352.37;;;64.13;;
8562;SDS011;16392;52.508;13.468;2023-02-23T03:26:20;354.40;;;64.10;;
8562;SDS011;16392;52.508;13.468;2023-02-23T03:29:10;354.67;;;66.57;;
8562;SDS011;16392;52.508;13.468;2023-02-23T03:32:01;357.70;;;69.43;;
8562;SDS011;16392;52.508;13.468;2023-02-23T03:34:52;350.33;;;65.90;;
8562;SDS011;16392;52.508;13.468;2023-02-23T03:37:43;352.23;;;65.67;;
8562;SDS011;16392;52.508;13.468;2023-02-23T03:40:31;350.67;;;66.43;;
8562;SDS011;16392;52.508;13.468;2023-02-23T03:43:22;355.23;;;65.53;;
8562;SDS011;16392;52.508;13.468;2023-02-23T03:46:09;348.77;;;64.63;;
8562;SDS011;16392;52.508;13.468;2023-02-23T03:48:56;350.77;;;63.60;;
8562;SDS011;16392;52.508;13.468;2023-02-23T03:51:45;351.43;;;67.27;;
8562;SDS011;16392;52.508;13.468;2023-02-23T03:54:34;359.27;;;83.23;;
8562;SDS011;16392;52.508;13.468;2023-02-23T03:57:22;354.43;;;66.50;;
8562;SDS011;16392;52.508;13.468;2023-02-23T04:00:13;349.70;;;64.97;;
8562;SDS011;16392;52.508;13.468;2023-02-23T04:03:02;350.00;;;64.47;;
8562;SDS011;16392;52.508;13.468;2023-02-23T04:05:49;353.03;;;65.97;;
8562;SDS011;16392;52.508;13.468;2023-02-23T04:08:36;352.67;;;63.50;;
8562;SDS011;16392;52.508;13.468;2023-02-23T04:11:23;349.70;;;63.40;;
8562;SDS011;16392;52.508;13.468;2023-02-23T04:14:13;351.27;;;66.23;;
8562;SDS011;16392;52.508;13.468;2023-02-23T04:16:43;354.57;;;66.47;;
8562;SDS011;16392;52.508;13.468;2023-02-23T04:19:10;355.07;;;65.13;;
8562;SDS011;16392;52.508;13.468;2023-02-23T04:21:37;351.43;;;63.87;;
8562;SDS011;16392;52.508;13.468;2023-02-23T04:24:04;348.90;;;63.93;;
8562;SDS011;16392;52.508;13.468;2023-02-23T04:26:31;350.97;;;63.43;;
8562;SDS011;16392;52.508;13.468;2023-02-23T04:28:57;348.53;;;65.13;;
8562;SDS011;16392;52.508;13.468;2023-02-23T04:31:24;348.93;;;64.47;;
8562;SDS011;16392;52.508;13.468;2023-02-23T04:33:52;348.90;;;65.27;;
8562;SDS011;16392;52.508;13.468;2023-02-23T04:36:19;348.60;;;63.43;;
8562;SDS011;16392;52.508;13.468;2023-02-23T04:38:46;354.13;;;74.93;;
8562;SDS011;16392;52.508;13.468;2023-02-23T04:41:12;346.17;;;63.37;;
8562;SDS011;16392;52.508;13.468;2023-02-23T04:43:39;348.10;;;63.70;;
8562;SDS011;16392;52.508;13.468;2023-02-23T04:46:05;345.80;;;65.37;;
8562;SDS011;16392;52.508;13.468;2023-02-23T04:48:32;345.73;;;63.03;;
8562;SDS011;16392;52.508;13.468;2023-02-23T04:51:00;349.03;;;64.37;;
8562;SDS011;16392;52.508;13.468;2023-02-23T04:53:26;347.10;;;64.90;;
8562;SDS011;16392;52.508;13.468;2023-02-23T04:55:53;368.27;;;82.70;;
8562;SDS011;16392;52.508;13.468;2023-02-23T04:58:20;348.30;;;63.00;;
8562;SDS011;16392;52.508;13.468;2023-02-23T05:00:46;349.30;;;65.97;;
8562;SDS011;16392;52.508;13.468;2023-02-23T05:03:13;345.67;;;62.40;;
8562;SDS011;16392;52.508;13.468;2023-02-23T05:05:41;348.93;;;65.43;;
8562;SDS011;16392;52.508;13.468;2023-02-23T05:08:09;346.70;;;65.50;;
8562;SDS011;16392;52.508;13.468;2023-02-23T05:10:36;346.43;;;62.20;;
8562;SDS011;16392;52.508;13.468;2023-02-23T05:13:02;353.10;;;66.63;;
8562;SDS011;16392;52.508;13.468;2023-02-23T05:15:29;346.87;;;64.97;;
8562;SDS011;16392;52.508;13.468;2023-02-23T05:17:55;346.23;;;64.43;;
8562;SDS011;16392;52.508;13.468;2023-02-23T05:20:22;344.13;;;63.63;;
8562;SDS011;16392;52.508;13.468;2023-02-23T05:22:49;342.37;;;63.03;;
8562;SDS011;16392;52.508;13.468;2023-02-23T05:25:17;345.80;;;65.57;;
8562;SDS011;16392;52.508;13.468;2023-02-23T05:27:43;357.60;;;73.33;;
8562;SDS011;16392;52.508;13.468;2023-02-23T05:30:10;347.50;;;64.87;;
8562;SDS011;16392;52.508;13.468;2023-02-23T05:32:37;347.83;;;68.27;;
8562;SDS011;16392;52.508;13.468;2023-02-23T05:35:04;343.13;;;62.83;;
8562;SDS011;16392;52.508;13.468;2023-02-23T05:37:32;345.60;;;63.43;;
8562;SDS011;16392;52.508;13.468;2023-02-23T05:39:59;345.60;;;64.00;;
8562;SDS011;16392;52.508;13.468;2023-02-23T05:42:27;349.03;;;63.00;;
8562;SDS011;16392;52.508;13.468;2023-02-23T05:44:54;345.87;;;66.57;;
8562;SDS011;16392;52.508;13.468;2023-02-23T05:47:20;342.13;;;63.10;;
8562;SDS011;16392;52.508;13.468;2023-02-23T05:49:47;341.87;;;62.13;;
8562;SDS011;16392;52.508;13.468;2023-02-23T05:52:13;347.67;;;66.40;;
8562;SDS011;16392;52.508;13.468;2023-02-23T05:54:40;347.10;;;65.93;;
8562;SDS011;16392;52.508;13.468;2023-02-23T05:57:06;344.30;;;63.90;;
8562;SDS011;16392;52.508;13.468;2023-02-23T05:59:34;344.67;;;62.60;;
8562;SDS011;16392;52.508;13.468;2023-02-23T06:02:01;342.87;;;63.47;;
8562;SDS011;16392;52.508;13.468;2023-02-23T06:04:30;342.70;;;63.83;;
8562;SDS011;16392;52.508;13.468;2023-02-23T06:06:57;342.87;;;63.43;;
8562;SDS011;16392;52.508;13.468;2023-02-23T06:09:24;344.50;;;64.60;;
8562;SDS011;16392;52.508;13.468;2023-02-23T06:11:50;341.67;;;62.70;;
8562;SDS011;16392;52.508;13.468;2023-02-23T06:14:17;341.20;;;62.63;;
8562;SDS011;16392;52.508;13.468;2023-02-23T06:16:45;342.67;;;63.07;;
8562;SDS011;16392;52.508;13.468;2023-02-23T06:19:12;341.50;;;62.47;;
8562;SDS011;16392;52.508;13.468;2023-02-23T06:21:39;343.83;;;62.77;;
8562;SDS011;16392;52.508;13.468;2023-02-23T06:24:06;342.23;;;63.90;;
8562;SDS011;16392;52.508;13.468;2023-02-23T06:26:32;340.07;;;61.93;;
8562;SDS011;16392;52.508;13.468;2023-02-23T06:28:59;341.40;;;64.93;;
8562;SDS011;16392;52.508;13.468;2023-02-23T06:31:26;363.13;;;69.53;;
8562;SDS011;16392;52.508;13.468;2023-02-23T06:33:54;347.73;;;64.87;;
8562;SDS011;16392;52.508;13.468;2023-02-23T06:36:21;342.37;;;63.37;;
8562;SDS011;16392;52.508;13.468;2023-02-23T06:38:47;342.13;;;67.00;;
8562;SDS011;16392;52.508;13.468;2023-02-23T06:41:14;342.37;;;63.07;;
8562;SDS011;16392;52.508;13.468;2023-02-23T06:43:41;344.77;;;64.70;;
8562;SDS011;16392;52.508;13.468;2023-02-23T06:46:08;343.67;;;66.93;;
8562;SDS011;16392;52.508;13.468;2023-02-23T06:48:35;341.73;;;63.03;;
8562;SDS011;16392;52.508;13.468;2023-02-23T06:51:03;343.10;;;64.40;;
8562;SDS011;16392;52.508;13.468;2023-02-23T06:53:30;342.30;;;61.80;;
8562;SDS011;16392;52.508;13.468;2023-02-23T06:55:57;349.47;;;73.47;;
8562;SDS011;16392;52.508;13.468;2023-02-23T06:58:24;345.63;;;62.97;;
8562;SDS011;16392;52.508;13.468;2023-02-23T07:00:53;344.53;;;64.87;;
8562;SDS011;16392;52.508;13.468;2023-02-23T07:03:20;353.33;;;71.17;;
8562;SDS011;16392;52.508;13.468;2023-02-23T07:05:47;351.20;;;72.03;;
8562;SDS011;16392;52.508;13.468;2023-02-23T07:08:16;351.03;;;64.93;;
8562;SDS011;16392;52.508;13.468;2023-02-23T07:10:43;352.40;;;67.23;;
8562;SDS011;16392;52.508;13.468;2023-02-23T07:13:10;346.23;;;62.63;;
8562;SDS011;16392;52.508;13.468;2023-02-23T07:15:37;350.03;;;67.40;;
8562;SDS011;16392;52.508;13.468;2023-02-23T07:18:05;348.53;;;66.57;;
8562;SDS011;16392;52.508;13.468;2023-02-23T07:20:32;352.97;;;64.30;;
8562;SDS011;16392;52.508;13.468;2023-02-23T07:22:59;351.37;;;66.27;;
8562;SDS011;16392;52.508;13.468;2023-02-23T07:25:27;354.40;;;65.07;;
8562;SDS011;16392;52.508;13.468;2023-02-23T07:27:54;351.47;;;63.30;;
8562;SDS011;16392;52.508;13.468;2023-02-23T07:30:23;352.83;;;65.50;;
8562;SDS011;16392;52.508;13.468;2023-02-23T07:32:50;354.53;;;65.67;;
8562;SDS011;16392;52.508;13.468;2023-02-23T07:35:17;352.67;;;62.90;;
8562;SDS011;16392;52.508;13.468;2023-02-23T07:37:44;354.40;;;63.53;;
8562;SDS011;16392;52.508;13.468;2023-02-23T07:40:11;355.50;;;64.50;;
8562;SDS011;16392;52.508;13.468;2023-02-23T07:42:40;355.20;;;66.00;;
8562;SDS011;16392;52.508;13.468;2023-02-23T07:45:07;357.17;;;64.03;;
8562;SDS011;16392;52.508;13.468;2023-02-23T07:47:34;357.53;;;64.63;;
8562;SDS011;16392;52.508;13.468;2023-02-23T07:50:01;359.17;;;66.67;;
8562;SDS011;16392;52.508;13.468;2023-02-23T07:52:33;357.53;;;67.60;;
8562;SDS011;16392;52.508;13.468;2023-02-23T07:55:00;360.60;;;70.80;;
8562;SDS011;16392;52.508;13.468;2023-02-23T07:57:27;355.00;;;63.77;;
8562;SDS011;16392;52.508;13.468;2023-02-23T07:59:55;359.53;;;74.53;;
8562;SDS011;16392;52.508;13.468;2023-02-23T08:02:24;361.03;;;66.87;;
8562;SDS011;16392;52.508;13.468;2023-02-23T08:04:52;360.37;;;68.47;;
8562;SDS011;16392;52.508;13.468;2023-02-23T08:07:19;364.43;;;68.40;;
8562;SDS011;16392;52.508;13.468;2023-02-23T08:09:46;362.07;;;66.63;;
8562;SDS011;16392;52.508;13.468;2023-02-23T08:12:13;364.83;;;68.67;;
8562;SDS011;16392;52.508;13.468;2023-02-23T08:14:40;367.17;;;70.27;;
8562;SDS011;16392;52.508;13.468;2023-02-23T08:17:08;365.57;;;65.33;;
8562;SDS011;16392;52.508;13.468;2023-02-23T08:19:35;367.17;;;66.83;;
8562;SDS011;16392;52.508;13.468;2023-02-23T08:22:02;369.10;;;68.47;;
8562;SDS011;16392;52.508;13.468;2023-02-23T08:24:29;374.77;;;73.70;;
8562;SDS011;16392;52.508;13.468;2023-02-23T08:26:55;372.70;;;70.03;;
8562;SDS011;16392;52.508;13.468;2023-02-23T08:29:22;379.47;;;73.10;;
8562;SDS011;16392;52.508;13.468;2023-02-23T08:31:49;376.40;;;69.97;;
8562;SDS011;16392;52.508;13.468;2023-02-23T08:34:17;377.03;;;68.80;;
8562;SDS011;16392;52.508;13.468;2023-02-23T08:36:46;378.57;;;70.63;;
8562;SDS011;16392;52.508;13.468;2023-02-23T08:39:13;379.43;;;69.30;;
8562;SDS011;16392;52.508;13.468;2023-02-23T08:41:41;382.67;;;79.03;;
8562;SDS011;16392;52.508;13.468;2023-02-23T08:44:07;383.80;;;72.07;;
8562;SDS011;16392;52.508;13.468;2023-02-23T08:46:34;378.33;;;68.97;;
8562;SDS011;16392;52.508;13.468;2023-02-23T08:49:01;383.80;;;76.00;;
8562;SDS011;16392;52.508;13.468;2023-02-23T08:51:30;380.53;;;70.00;;
8562;SDS011;16392;52.508;13.468;2023-02-23T08:53:59;382.47;;;70.93;;
8562;SDS011;16392;52.508;13.468;2023-02-23T08:56:26;384.47;;;71.10;;
8562;SDS011;16392;52.508;13.468;2023-02-23T08:58:52;382.63;;;78.53;;
8562;SDS011;16392;52.508;13.468;2023-02-23T09:01:19;384.00;;;75.40;;
8562;SDS011;16392;52.508;13.468;2023-02-23T09:03:46;380.43;;;71.93;;
8562;SDS011;16392;52.508;13.468;2023-02-23T09:06:15;380.53;;;69.23;;
8562;SDS011;16392;52.508;13.468;2023-02-23T09:08:44;379.63;;;70.70;;
8562;SDS011;16392;52.508;13.468;2023-02-23T09:11:11;381.60;;;73.77;;
8562;SDS011;16392;52.508;13.468;2023-02-23T09:13:38;383.43;;;76.03;;
8562;SDS011;16392;52.508;13.468;2023-02-23T09:16:05;381.13;;;69.60;;
8562;SDS011;16392;52.508;13.468;2023-02-23T09:18:33;381.80;;;71.77;;
8562;SDS011;16392;52.508;13.468;2023-02-23T09:21:01;383.70;;;76.50;;
8562;SDS011;16392;52.508;13.468;2023-02-23T09:23:31;382.47;;;69.80;;
8562;SDS011;16392;52.508;13.468;2023-02-23T09:26:02;382.23;;;72.40;;
8562;SDS011;16392;52.508;13.468;2023-02-23T09:28:32;383.33;;;71.13;;
8562;SDS011;16392;52.508;13.468;2023-02-23T09:31:03;383.33;;;69.93;;
8562;SDS011;16392;52.508;13.468;2023-02-23T09:33:31;383.13;;;69.33;;
8562;SDS011;16392;52.508;13.468;2023-02-23T09:35:58;385.73;;;73.60;;
8562;SDS011;16392;52.508;13.468;2023-02-23T09:38:24;385.40;;;71.97;;
8562;SDS011;16392;52.508;13.468;2023-02-23T09:40:52;389.37;;;74.20;;
8562;SDS011;16392;52.508;13.468;2023-02-23T09:43:21;390.93;;;80.47;;
8562;SDS011;16392;52.508;13.468;2023-02-23T09:45:56;394.57;;;76.43;;
8562;SDS011;16392;52.508;13.468;2023-02-23T09:48:33;393.67;;;78.73;;
8562;SDS011;16392;52.508;13.468;2023-02-23T09:51:00;393.60;;;75.30;;
8562;SDS011;16392;52.508;13.468;2023-02-23T09:53:34;389.87;;;73.33;;
8562;SDS011;16392;52.508;13.468;2023-02-23T09:56:05;390.00;;;73.57;;
8562;SDS011;16392;52.508;13.468;2023-02-23T09:58:38;394.60;;;78.47;;
8562;SDS011;16392;52.508;13.468;2023-02-23T10:01:16;396.47;;;74.77;;
8562;SDS011;16392;52.508;13.468;2023-02-23T10:04:06;396.70;;;77.97;;
8562;SDS011;16392;52.508;13.468;2023-02-23T10:06:38;397.53;;;78.70;;
8562;SDS011;16392;52.508;13.468;2023-02-23T11:12:59;444.10;;;127.95;;
8562;SDS011;16392;52.508;13.468;2023-02-23T11:15:27;442.63;;;126.80;;
8562;SDS011;16392;52.508;13.468;2023-02-23T11:17:55;460.60;;;171.80;;
8562;SDS011;16392;52.508;13.468;2023-02-23T11:20:25;441.33;;;124.30;;
8562;SDS011;16392;52.508;13.468;2023-02-23T11:22:57;441.95;;;118.97;;
8562;SDS011;16392;52.508;13.468;2023-02-23T11:25:24;443.52;;;128.80;;
8562;SDS011;16392;52.508;13.468;2023-02-23T11:27:54;437.15;;;116.03;;
8562;SDS011;16392;52.508;13.468;2023-02-23T11:30:24;439.33;;;118.88;;
8562;SDS011;16392;52.508;13.468;2023-02-23T11:32:56;437.48;;;113.68;;
8562;SDS011;16392;52.508;13.468;2023-02-23T11:35:29;442.05;;;122.22;;
8562;SDS011;16392;52.508;13.468;2023-02-23T11:37:56;442.90;;;119.07;;
8562;SDS011;16392;52.508;13.468;2023-02-23T11:40:24;438.65;;;117.88;;
8562;SDS011;16392;52.508;13.468;2023-02-23T11:42:53;436.58;;;118.95;;
8562;SDS011;16392;52.508;13.468;2023-02-23T11:45:22;437.23;;;116.07;;
8562;SDS011;16392;52.508;13.468;2023-02-23T11:47:52;438.35;;;118.60;;
8562;SDS011;16392;52.508;13.468;2023-02-23T11:50:22;436.90;;;117.97;;
8562;SDS011;16392;52.508;13.468;2023-02-23T11:52:53;435.52;;;112.63;;
8562;SDS011;16392;52.508;13.468;2023-02-23T11:55:23;434.73;;;113.78;;
8562;SDS011;16392;52.508;13.468;2023-02-23T11:57:50;437.40;;;115.28;;
8562;SDS011;16392;52.508;13.468;2023-02-23T12:00:21;435.58;;;110.72;;
8562;SDS011;16392;52.508;13.468;2023-02-23T12:02:53;433.40;;;108.35;;
8562;SDS011;16392;52.508;13.468;2023-02-23T12:05:23;435.15;;;114.60;;
8562;SDS011;16392;52.508;13.468;2023-02-23T12:07:53;433.98;;;115.22;;
8562;SDS011;16392;52.508;13.468;2023-02-23T12:10:25;431.27;;;109.72;;
8562;SDS011;16392;52.508;13.468;2023-02-23T12:12:57;429.55;;;104.85;;
8562;SDS011;16392;52.508;13.468;2023-02-23T12:15:35;439.00;;;108.72;;
8562;SDS011;16392;52.508;13.468;2023-02-23T12:18:11;428.42;;;102.32;;
8562;SDS011;16392;52.508;13.468;2023-02-23T12:20:43;430.30;;;104.15;;
8562;SDS011;16392;52.508;13.468;2023-02-23T12:23:14;437.73;;;122.45;;
8562;SDS011;16392;52.508;13.468;2023-02-23T12:25:45;431.65;;;106.22;;
8562;SDS011;16392;52.508;13.468;2023-02-23T12:28:17;431.77;;;108.88;;
8562;SDS011;16392;52.508;13.468;2023-02-23T12:30:52;431.15;;;110.38;;
8562;SDS011;16392;52.508;13.468;2023-02-23T12:33:24;431.60;;;107.78;;
8562;SDS011;16392;52.508;13.468;2023-02-23T12:35:59;430.25;;;107.90;;
8562;SDS011;16392;52.508;13.468;2023-02-23T12:38:31;432.95;;;109.32;;
8562;SDS011;16392;52.508;13.468;2023-02-23T12:41:05;432.52;;;110.47;;
8562;SDS011;16392;52.508;13.468;2023-02-23T12:43:38;441.80;;;112.03;;
8562;SDS011;16392;52.508;13.468;2023-02-23T12:46:18;430.80;;;106.97;;
8562;SDS011;16392;52.508;13.468;2023-02-23T12:48:51;432.70;;;108.28;;
8562;SDS011;16392;52.508;13.468;2023-02-23T12:51:27;441.38;;;129.70;;
8562;SDS011;16392;52.508;13.468;2023-02-23T12:53:59;437.42;;;115.32;;
8562;SDS011;16392;52.508;13.468;2023-02-23T13:02:32;440.25;;;117.90;;
8562;SDS011;16392;52.508;13.468;2023-02-23T13:05:08;437.02;;;116.60;;
8562;SDS011;16392;52.508;13.468;2023-02-23T13:07:48;431.48;;;110.70;;
8562;SDS011;16392;52.508;13.468;2023-02-23T13:10:24;437.40;;;107.35;;
8562;SDS011;16392;52.508;13.468;2023-02-23T13:13:00;433.30;;;107.32;;
8562;SDS011;16392;52.508;13.468;2023-02-23T13:15:44;429.20;;;102.20;;
8562;SDS011;16392;52.508;13.468;2023-02-23T13:18:19;430.38;;;108.13;;
8562;SDS011;16392;52.508;13.468;2023-02-23T13:20:50;430.98;;;111.28;;
8562;SDS011;16392;52.508;13.468;2023-02-23T13:23:23;431.00;;;106.68;;
8562;SDS011;16392;52.508;13.468;2023-02-23T13:25:57;429.40;;;105.63;;
8562;SDS011;16392;52.508;13.468;2023-02-23T13:28:35;431.80;;;110.43;;
8562;SDS011;16392;52.508;13.468;2023-02-23T13:31:16;431.50;;;108.45;;
8562;SDS011;16392;52.508;13.468;2023-02-23T13:33:48;432.65;;;110.03;;
8562;SDS011;16392;52.508;13.468;2023-02-23T13:36:15;430.75;;;107.88;;
8562;SDS011;16392;52.508;13.468;2023-02-23T13:38:45;431.45;;;110.43;;
8562;SDS011;16392;52.508;13.468;2023-02-23T13:41:26;431.02;;;108.32;;
8562;SDS011;16392;52.508;13.468;2023-02-23T13:44:00;432.15;;;109.25;;
8562;SDS011;16392;52.508;13.468;2023-02-23T13:46:39;440.45;;;129.07;;
8562;SDS011;16392;52.508;13.468;2023-02-23T13:49:17;425.25;;;99.55;;
8562;SDS011;16392;52.508;13.468;2023-02-23T13:51:53;431.92;;;106.47;;
8562;SDS011;16392;52.508;13.468;2023-02-23T13:54:23;426.55;;;103.57;;
8562;SDS011;16392;52.508;13.468;2023-02-23T13:56:54;435.33;;;105.82;;
8562;SDS011;16392;52.508;13.468;2023-02-23T13:59:22;429.77;;;104.38;;
8562;SDS011;16392;52.508;13.468;2023-02-23T14:01:51;426.83;;;101.70;;
8562;SDS011;16392;52.508;13.468;2023-02-23T14:04:23;426.30;;;101.40;;
8562;SDS011;16392;52.508;13.468;2023-02-23T14:06:54;429.20;;;99.07;;
8562;SDS011;16392;52.508;13.468;2023-02-23T14:09:27;433.25;;;110.07;;
8562;SDS011;16392;52.508;13.468;2023-02-23T14:12:00;429.95;;;106.03;;
8562;SDS011;16392;52.508;13.468;2023-02-23T14:14:41;426.83;;;100.13;;
8562;SDS011;16392;52.508;13.468;2023-02-23T14:23:30;418.63;;;92.45;;
8562;SDS011;16392;52.508;13.468;2023-02-23T14:26:14;424.08;;;97.03;;
8562;SDS011;16392;52.508;13.468;2023-02-23T14:29:14;421.17;;;96.38;;
8562;SDS011;16392;52.508;13.468;2023-02-23T14:31:54;419.05;;;92.82;;
8562;SDS011;16392;52.508;13.468;2023-02-23T14:34:41;425.05;;;101.65;;
8562;SDS011;16392;52.508;13.468;2023-02-23T14:37:17;423.00;;;92.82;;
8562;SDS011;16392;52.508;13.468;2023-02-23T14:39:50;417.00;;;91.28;;
8562;SDS011;16392;52.508;13.468;2023-02-23T14:42:19;420.75;;;98.00;;
8562;SDS011;16392;52.508;13.468;2023-02-23T14:44:48;415.05;;;89.20;;
8562;SDS011;16392;52.508;13.468;2023-02-23T14:47:17;417.77;;;90.10;;
8562;SDS011;16392;52.508;13.468;2023-02-23T14:49:46;414.45;;;88.60;;
8562;SDS011;16392;52.508;13.468;2023-02-23T14:52:18;416.63;;;89.67;;
8562;SDS011;16392;52.508;13.468;2023-02-23T14:54:46;414.20;;;86.00;;
8562;SDS011;16392;52.508;13.468;2023-02-23T14:57:15;417.17;;;93.40;;
8562;SDS011;16392;52.508;13.468;2023-02-23T14:59:44;421.87;;;92.10;;
8562;SDS011;16392;52.508;13.468;2023-02-23T15:02:17;423.57;;;114.73;;
8562;SDS011;16392;52.508;13.468;2023-02-23T15:04:46;411.63;;;84.60;;
8562;SDS011;16392;52.508;13.468;2023-02-23T15:07:14;416.90;;;91.00;;
8562;SDS011;16392;52.508;13.468;2023-02-23T15:09:50;420.38;;;103.80;;
8562;SDS011;16392;52.508;13.468;2023-02-23T15:12:20;415.83;;;93.17;;
8562;SDS011;16392;52.508;13.468;2023-02-23T15:14:51;417.35;;;85.80;;
8562;SDS011;16392;52.508;13.468;2023-02-23T15:17:21;412.03;;;84.43;;
8562;SDS011;16392;52.508;13.468;2023-02-23T15:19:52;412.63;;;86.07;;
8562;SDS011;16392;52.508;13.468;2023-02-23T15:22:24;416.93;;;91.07;;
8562;SDS011;16392;52.508;13.468;2023-02-23T15:24:56;415.63;;;97.93;;
8562;SDS011;16392;52.508;13.468;2023-02-23T15:27:29;417.13;;;93.88;;
8562;SDS011;16392;52.508;13.468;2023-02-23T15:30:16;426.30;;;123.30;;
8562;SDS011;16392;52.508;13.468;2023-02-23T15:32:53;410.70;;;87.65;;
8562;SDS011;16392;52.508;13.468;2023-02-23T15:35:28;411.90;;;88.72;;
8562;SDS011;16392;52.508;13.468;2023-02-23T15:37:56;418.55;;;102.00;;
8562;SDS011;16392;52.508;13.468;2023-02-23T15:40:26;409.17;;;85.57;;
8562;SDS011;16392;52.508;13.468;2023-02-23T15:42:55;405.07;;;81.63;;
8562;SDS011;16392;52.508;13.468;2023-02-23T15:45:27;412.87;;;86.53;;
8562;SDS011;16392;52.508;13.468;2023-02-23T15:48:01;417.70;;;88.77;;
8562;SDS011;16392;52.508;13.468;2023-02-23T15:50:31;412.03;;;88.00;;
8562;SDS011;16392;52.508;13.468;2023-02-23T15:53:01;409.30;;;87.07;;